HSV weather

Huntsville International Carl T Jones Field
Huntsville, Alabama, United States

Public forecast

Using degrees Fahrenheit for public forecast. Weather courtesy of forecast.io.

Current aviation weather report (METAR) for Huntsville International Carl T Jones Field

Retrieved 2019/11/18 01:53 UTC (31 minutes ago):

KHSV 180153Z 29003KT 10SM BKN250 08/02 A2991 RMK AO2 SLP130 T00830017

Aviation forecast (TAF) for Huntsville International Carl T Jones Field

Retrieved 2019-11-18 00:22 UTC (2 hours ago):

TAF KHSV 172320Z 1800/1824 32004KT P6SM BKN250 FM181700 31008KT P6SM SCT050 BKN150